sensor_id;sensor_type;location;lat;lon;timestamp;P1;durP1;ratioP1;P2;durP2;ratioP2
24801;SDS011;12898;50.520;12.152;2023-05-07T00:00:22;43.55;;;31.50;;
24801;SDS011;12898;50.520;12.152;2023-05-07T00:02:48;41.20;;;28.90;;
24801;SDS011;12898;50.520;12.152;2023-05-07T00:05:13;41.30;;;29.55;;
24801;SDS011;12898;50.520;12.152;2023-05-07T00:07:39;42.53;;;29.65;;
24801;SDS011;12898;50.520;12.152;2023-05-07T00:10:05;46.92;;;30.90;;
24801;SDS011;12898;50.520;12.152;2023-05-07T00:12:32;43.13;;;30.70;;
24801;SDS011;12898;50.520;12.152;2023-05-07T00:15:01;44.70;;;29.83;;
24801;SDS011;12898;50.520;12.152;2023-05-07T00:17:29;48.60;;;33.22;;
24801;SDS011;12898;50.520;12.152;2023-05-07T00:19:55;46.45;;;32.90;;
24801;SDS011;12898;50.520;12.152;2023-05-07T00:22:21;47.00;;;31.63;;
24801;SDS011;12898;50.520;12.152;2023-05-07T00:24:46;44.50;;;30.95;;
24801;SDS011;12898;50.520;12.152;2023-05-07T00:27:12;46.38;;;32.08;;
24801;SDS011;12898;50.520;12.152;2023-05-07T00:29:38;43.40;;;30.35;;
24801;SDS011;12898;50.520;12.152;2023-05-07T00:32:04;45.85;;;31.70;;
24801;SDS011;12898;50.520;12.152;2023-05-07T00:34:30;45.92;;;32.72;;
24801;SDS011;12898;50.520;12.152;2023-05-07T00:36:56;42.47;;;30.70;;
24801;SDS011;12898;50.520;12.152;2023-05-07T00:39:21;45.45;;;32.70;;
24801;SDS011;12898;50.520;12.152;2023-05-07T00:41:47;45.10;;;32.38;;
24801;SDS011;12898;50.520;12.152;2023-05-07T00:44:13;40.13;;;28.52;;
24801;SDS011;12898;50.520;12.152;2023-05-07T00:46:39;45.10;;;32.10;;
24801;SDS011;12898;50.520;12.152;2023-05-07T00:49:05;40.90;;;29.88;;
24801;SDS011;12898;50.520;12.152;2023-05-07T00:51:31;44.72;;;29.90;;
24801;SDS011;12898;50.520;12.152;2023-05-07T00:53:59;47.28;;;31.05;;
24801;SDS011;12898;50.520;12.152;2023-05-07T00:56:26;44.28;;;31.33;;
24801;SDS011;12898;50.520;12.152;2023-05-07T00:58:52;48.15;;;32.25;;
24801;SDS011;12898;50.520;12.152;2023-05-07T01:01:18;43.80;;;30.95;;
24801;SDS011;12898;50.520;12.152;2023-05-07T01:03:44;41.42;;;30.90;;
24801;SDS011;12898;50.520;12.152;2023-05-07T01:06:10;43.47;;;30.88;;
24801;SDS011;12898;50.520;12.152;2023-05-07T01:08:37;45.22;;;31.15;;
24801;SDS011;12898;50.520;12.152;2023-05-07T01:11:05;40.95;;;29.60;;
24801;SDS011;12898;50.520;12.152;2023-05-07T01:13:32;40.00;;;28.00;;
24801;SDS011;12898;50.520;12.152;2023-05-07T01:16:00;40.88;;;29.00;;
24801;SDS011;12898;50.520;12.152;2023-05-07T01:18:26;40.28;;;29.30;;
24801;SDS011;12898;50.520;12.152;2023-05-07T01:20:52;44.40;;;30.45;;
24801;SDS011;12898;50.520;12.152;2023-05-07T01:23:19;41.85;;;29.38;;
24801;SDS011;12898;50.520;12.152;2023-05-07T01:25:55;44.35;;;31.60;;
24801;SDS011;12898;50.520;12.152;2023-05-07T01:28:21;42.45;;;30.45;;
24801;SDS011;12898;50.520;12.152;2023-05-07T01:30:48;45.25;;;30.92;;
24801;SDS011;12898;50.520;12.152;2023-05-07T01:33:19;42.58;;;30.88;;
24801;SDS011;12898;50.520;12.152;2023-05-07T01:35:47;42.95;;;28.55;;
24801;SDS011;12898;50.520;12.152;2023-05-07T01:38:18;42.05;;;28.88;;
24801;SDS011;12898;50.520;12.152;2023-05-07T01:40:46;43.33;;;29.42;;
24801;SDS011;12898;50.520;12.152;2023-05-07T01:43:12;42.08;;;29.13;;
24801;SDS011;12898;50.520;12.152;2023-05-07T01:45:38;45.42;;;30.90;;
24801;SDS011;12898;50.520;12.152;2023-05-07T01:48:06;42.03;;;29.10;;
24801;SDS011;12898;50.520;12.152;2023-05-07T01:50:34;40.25;;;28.67;;
24801;SDS011;12898;50.520;12.152;2023-05-07T01:53:00;40.45;;;28.98;;
24801;SDS011;12898;50.520;12.152;2023-05-07T01:55:26;43.33;;;27.80;;
24801;SDS011;12898;50.520;12.152;2023-05-07T01:57:52;42.75;;;29.27;;
24801;SDS011;12898;50.520;12.152;2023-05-07T02:00:18;37.45;;;26.80;;
24801;SDS011;12898;50.520;12.152;2023-05-07T02:02:44;41.30;;;27.60;;
24801;SDS011;12898;50.520;12.152;2023-05-07T02:05:10;40.17;;;28.52;;
24801;SDS011;12898;50.520;12.152;2023-05-07T02:07:35;40.03;;;27.67;;
24801;SDS011;12898;50.520;12.152;2023-05-07T02:10:01;40.85;;;27.95;;
24801;SDS011;12898;50.520;12.152;2023-05-07T02:12:28;38.67;;;26.83;;
24801;SDS011;12898;50.520;12.152;2023-05-07T02:14:53;40.45;;;27.92;;
24801;SDS011;12898;50.520;12.152;2023-05-07T02:17:19;37.78;;;26.20;;
24801;SDS011;12898;50.520;12.152;2023-05-07T02:19:45;39.20;;;26.83;;
24801;SDS011;12898;50.520;12.152;2023-05-07T02:22:10;40.00;;;27.15;;
24801;SDS011;12898;50.520;12.152;2023-05-07T02:24:36;37.70;;;26.92;;
24801;SDS011;12898;50.520;12.152;2023-05-07T02:27:02;42.35;;;27.17;;
24801;SDS011;12898;50.520;12.152;2023-05-07T02:29:28;39.13;;;27.75;;
24801;SDS011;12898;50.520;12.152;2023-05-07T02:31:54;38.90;;;27.35;;
24801;SDS011;12898;50.520;12.152;2023-05-07T02:34:20;42.10;;;28.52;;
24801;SDS011;12898;50.520;12.152;2023-05-07T02:36:46;45.75;;;29.10;;
24801;SDS011;12898;50.520;12.152;2023-05-07T02:39:12;42.83;;;29.15;;
24801;SDS011;12898;50.520;12.152;2023-05-07T02:41:38;42.55;;;29.45;;
24801;SDS011;12898;50.520;12.152;2023-05-07T02:44:04;42.50;;;28.23;;
24801;SDS011;12898;50.520;12.152;2023-05-07T02:46:30;41.25;;;28.15;;
24801;SDS011;12898;50.520;12.152;2023-05-07T02:48:56;43.75;;;29.20;;
24801;SDS011;12898;50.520;12.152;2023-05-07T02:51:22;41.90;;;28.70;;
24801;SDS011;12898;50.520;12.152;2023-05-07T02:53:48;38.30;;;26.85;;
24801;SDS011;12898;50.520;12.152;2023-05-07T02:56:13;41.63;;;28.27;;
24801;SDS011;12898;50.520;12.152;2023-05-07T02:58:39;41.05;;;28.50;;
24801;SDS011;12898;50.520;12.152;2023-05-07T03:01:06;39.78;;;27.92;;
24801;SDS011;12898;50.520;12.152;2023-05-07T03:03:33;38.50;;;25.65;;
24801;SDS011;12898;50.520;12.152;2023-05-07T03:05:59;39.33;;;27.17;;
24801;SDS011;12898;50.520;12.152;2023-05-07T03:08:25;41.65;;;28.80;;
24801;SDS011;12898;50.520;12.152;2023-05-07T03:10:51;39.05;;;27.58;;
24801;SDS011;12898;50.520;12.152;2023-05-07T03:13:17;43.50;;;28.52;;
24801;SDS011;12898;50.520;12.152;2023-05-07T03:15:43;38.63;;;27.00;;
24801;SDS011;12898;50.520;12.152;2023-05-07T03:18:08;39.05;;;26.58;;
24801;SDS011;12898;50.520;12.152;2023-05-07T03:20:34;42.60;;;27.52;;
24801;SDS011;12898;50.520;12.152;2023-05-07T03:23:01;42.08;;;28.45;;
24801;SDS011;12898;50.520;12.152;2023-05-07T03:25:27;39.50;;;27.17;;
24801;SDS011;12898;50.520;12.152;2023-05-07T03:27:53;41.95;;;28.00;;
24801;SDS011;12898;50.520;12.152;2023-05-07T03:30:19;43.65;;;27.42;;
24801;SDS011;12898;50.520;12.152;2023-05-07T03:32:45;39.90;;;26.98;;
24801;SDS011;12898;50.520;12.152;2023-05-07T03:35:10;38.90;;;26.75;;
24801;SDS011;12898;50.520;12.152;2023-05-07T03:37:37;39.90;;;27.13;;
24801;SDS011;12898;50.520;12.152;2023-05-07T03:40:03;39.53;;;26.83;;
24801;SDS011;12898;50.520;12.152;2023-05-07T03:42:30;38.42;;;26.73;;
24801;SDS011;12898;50.520;12.152;2023-05-07T03:44:56;38.10;;;26.60;;
24801;SDS011;12898;50.520;12.152;2023-05-07T03:47:21;40.90;;;27.30;;
24801;SDS011;12898;50.520;12.152;2023-05-07T03:49:47;39.15;;;26.83;;
24801;SDS011;12898;50.520;12.152;2023-05-07T03:52:14;42.17;;;27.35;;
24801;SDS011;12898;50.520;12.152;2023-05-07T03:54:40;37.42;;;26.20;;
24801;SDS011;12898;50.520;12.152;2023-05-07T03:57:05;40.50;;;26.67;;
24801;SDS011;12898;50.520;12.152;2023-05-07T03:59:31;44.50;;;29.15;;
24801;SDS011;12898;50.520;12.152;2023-05-07T04:01:57;40.42;;;27.08;;
24801;SDS011;12898;50.520;12.152;2023-05-07T04:04:23;42.65;;;27.25;;
24801;SDS011;12898;50.520;12.152;2023-05-07T04:06:49;40.25;;;27.33;;
24801;SDS011;12898;50.520;12.152;2023-05-07T04:09:14;36.20;;;24.67;;
24801;SDS011;12898;50.520;12.152;2023-05-07T04:11:40;36.53;;;25.55;;
24801;SDS011;12898;50.520;12.152;2023-05-07T04:14:06;38.63;;;25.45;;
24801;SDS011;12898;50.520;12.152;2023-05-07T04:16:31;40.10;;;24.55;;
24801;SDS011;12898;50.520;12.152;2023-05-07T04:18:57;35.13;;;23.10;;
24801;SDS011;12898;50.520;12.152;2023-05-07T04:21:23;37.55;;;22.65;;
24801;SDS011;12898;50.520;12.152;2023-05-07T04:23:48;35.95;;;23.35;;
24801;SDS011;12898;50.520;12.152;2023-05-07T04:26:15;35.97;;;23.85;;
24801;SDS011;12898;50.520;12.152;2023-05-07T04:28:41;36.42;;;22.25;;
24801;SDS011;12898;50.520;12.152;2023-05-07T04:31:06;33.53;;;22.20;;
24801;SDS011;12898;50.520;12.152;2023-05-07T04:33:33;33.45;;;20.92;;
24801;SDS011;12898;50.520;12.152;2023-05-07T04:36:02;32.20;;;21.30;;
24801;SDS011;12898;50.520;12.152;2023-05-07T04:38:29;29.48;;;19.58;;
24801;SDS011;12898;50.520;12.152;2023-05-07T04:40:56;30.70;;;20.48;;
24801;SDS011;12898;50.520;12.152;2023-05-07T04:43:22;32.75;;;20.70;;
24801;SDS011;12898;50.520;12.152;2023-05-07T04:45:49;30.10;;;19.98;;
24801;SDS011;12898;50.520;12.152;2023-05-07T04:48:16;33.08;;;21.13;;
24801;SDS011;12898;50.520;12.152;2023-05-07T04:50:44;32.38;;;19.73;;
24801;SDS011;12898;50.520;12.152;2023-05-07T04:53:12;32.75;;;19.80;;
24801;SDS011;12898;50.520;12.152;2023-05-07T04:55:38;33.15;;;20.33;;
24801;SDS011;12898;50.520;12.152;2023-05-07T04:58:03;31.42;;;21.20;;
24801;SDS011;12898;50.520;12.152;2023-05-07T05:00:29;33.47;;;20.83;;
24801;SDS011;12898;50.520;12.152;2023-05-07T05:02:55;29.40;;;19.92;;
24801;SDS011;12898;50.520;12.152;2023-05-07T05:05:21;30.30;;;19.63;;
24801;SDS011;12898;50.520;12.152;2023-05-07T05:07:47;28.85;;;19.05;;
24801;SDS011;12898;50.520;12.152;2023-05-07T05:10:12;31.42;;;20.17;;
24801;SDS011;12898;50.520;12.152;2023-05-07T05:12:38;29.92;;;19.67;;
24801;SDS011;12898;50.520;12.152;2023-05-07T05:15:04;31.67;;;19.92;;
24801;SDS011;12898;50.520;12.152;2023-05-07T05:17:30;32.53;;;20.80;;
24801;SDS011;12898;50.520;12.152;2023-05-07T05:19:56;34.30;;;19.77;;
24801;SDS011;12898;50.520;12.152;2023-05-07T05:22:22;31.73;;;20.20;;
24801;SDS011;12898;50.520;12.152;2023-05-07T05:24:47;31.45;;;20.15;;
24801;SDS011;12898;50.520;12.152;2023-05-07T05:27:13;30.73;;;19.27;;
24801;SDS011;12898;50.520;12.152;2023-05-07T05:29:39;30.38;;;19.67;;
24801;SDS011;12898;50.520;12.152;2023-05-07T05:32:05;31.15;;;19.30;;
24801;SDS011;12898;50.520;12.152;2023-05-07T05:34:30;26.23;;;17.98;;
24801;SDS011;12898;50.520;12.152;2023-05-07T05:36:58;25.60;;;17.10;;
24801;SDS011;12898;50.520;12.152;2023-05-07T05:39:24;27.52;;;19.08;;
24801;SDS011;12898;50.520;12.152;2023-05-07T05:41:49;28.55;;;19.35;;
24801;SDS011;12898;50.520;12.152;2023-05-07T05:44:15;32.33;;;18.70;;
24801;SDS011;12898;50.520;12.152;2023-05-07T05:46:41;29.23;;;18.83;;
24801;SDS011;12898;50.520;12.152;2023-05-07T05:49:07;28.38;;;18.15;;
24801;SDS011;12898;50.520;12.152;2023-05-07T05:51:33;27.27;;;17.95;;
24801;SDS011;12898;50.520;12.152;2023-05-07T05:53:59;25.80;;;16.95;;
24801;SDS011;12898;50.520;12.152;2023-05-07T05:56:24;27.02;;;17.70;;
24801;SDS011;12898;50.520;12.152;2023-05-07T05:58:50;26.27;;;17.33;;
24801;SDS011;12898;50.520;12.152;2023-05-07T06:01:16;28.38;;;19.13;;
24801;SDS011;12898;50.520;12.152;2023-05-07T06:03:43;26.95;;;17.85;;
24801;SDS011;12898;50.520;12.152;2023-05-07T06:06:09;27.02;;;16.30;;
24801;SDS011;12898;50.520;12.152;2023-05-07T06:08:35;24.50;;;16.88;;
24801;SDS011;12898;50.520;12.152;2023-05-07T06:11:01;28.42;;;18.55;;
24801;SDS011;12898;50.520;12.152;2023-05-07T06:13:27;27.23;;;17.45;;
24801;SDS011;12898;50.520;12.152;2023-05-07T06:15:53;26.60;;;17.85;;
24801;SDS011;12898;50.520;12.152;2023-05-07T06:18:19;25.45;;;16.35;;
24801;SDS011;12898;50.520;12.152;2023-05-07T06:20:44;26.80;;;17.80;;
24801;SDS011;12898;50.520;12.152;2023-05-07T06:23:10;26.52;;;17.05;;
24801;SDS011;12898;50.520;12.152;2023-05-07T06:25:36;24.58;;;15.60;;
24801;SDS011;12898;50.520;12.152;2023-05-07T06:28:02;25.48;;;16.00;;
24801;SDS011;12898;50.520;12.152;2023-05-07T06:30:27;25.92;;;16.88;;
24801;SDS011;12898;50.520;12.152;2023-05-07T06:32:53;25.67;;;16.52;;
24801;SDS011;12898;50.520;12.152;2023-05-07T06:35:19;22.25;;;15.10;;
24801;SDS011;12898;50.520;12.152;2023-05-07T06:37:44;25.52;;;16.42;;
24801;SDS011;12898;50.520;12.152;2023-05-07T06:40:10;23.90;;;16.10;;
24801;SDS011;12898;50.520;12.152;2023-05-07T06:42:36;25.63;;;16.52;;
24801;SDS011;12898;50.520;12.152;2023-05-07T06:45:02;22.95;;;15.13;;
24801;SDS011;12898;50.520;12.152;2023-05-07T06:47:29;25.25;;;15.65;;
24801;SDS011;12898;50.520;12.152;2023-05-07T06:49:55;23.20;;;15.65;;
24801;SDS011;12898;50.520;12.152;2023-05-07T06:52:20;25.17;;;14.73;;
24801;SDS011;12898;50.520;12.152;2023-05-07T06:54:46;23.08;;;14.57;;
24801;SDS011;12898;50.520;12.152;2023-05-07T06:57:12;20.85;;;13.93;;
24801;SDS011;12898;50.520;12.152;2023-05-07T06:59:37;24.40;;;14.80;;
24801;SDS011;12898;50.520;12.152;2023-05-07T07:02:03;21.77;;;13.50;;
24801;SDS011;12898;50.520;12.152;2023-05-07T07:04:29;21.23;;;14.30;;
24801;SDS011;12898;50.520;12.152;2023-05-07T07:06:54;20.45;;;14.13;;
24801;SDS011;12898;50.520;12.152;2023-05-07T07:09:21;20.00;;;12.95;;
24801;SDS011;12898;50.520;12.152;2023-05-07T07:11:47;19.83;;;12.60;;
24801;SDS011;12898;50.520;12.152;2023-05-07T07:14:13;20.98;;;13.85;;
24801;SDS011;12898;50.520;12.152;2023-05-07T07:16:39;20.30;;;12.80;;
24801;SDS011;12898;50.520;12.152;2023-05-07T07:19:05;22.77;;;13.80;;
24801;SDS011;12898;50.520;12.152;2023-05-07T07:21:31;20.90;;;13.63;;
24801;SDS011;12898;50.520;12.152;2023-05-07T07:23:57;19.92;;;12.55;;
24801;SDS011;12898;50.520;12.152;2023-05-07T07:26:22;21.80;;;14.27;;
24801;SDS011;12898;50.520;12.152;2023-05-07T07:28:48;21.83;;;14.20;;
24801;SDS011;12898;50.520;12.152;2023-05-07T07:31:14;22.40;;;12.55;;
24801;SDS011;12898;50.520;12.152;2023-05-07T07:33:40;21.52;;;13.73;;
24801;SDS011;12898;50.520;12.152;2023-05-07T07:36:06;22.35;;;11.93;;
24801;SDS011;12898;50.520;12.152;2023-05-07T07:38:32;20.60;;;13.63;;
24801;SDS011;12898;50.520;12.152;2023-05-07T07:40:58;19.30;;;13.15;;
24801;SDS011;12898;50.520;12.152;2023-05-07T07:43:25;21.73;;;13.57;;
24801;SDS011;12898;50.520;12.152;2023-05-07T07:45:50;20.58;;;13.50;;
24801;SDS011;12898;50.520;12.152;2023-05-07T07:48:16;20.95;;;13.63;;
24801;SDS011;12898;50.520;12.152;2023-05-07T07:50:42;19.55;;;13.73;;
24801;SDS011;12898;50.520;12.152;2023-05-07T07:53:07;20.52;;;12.77;;
24801;SDS011;12898;50.520;12.152;2023-05-07T07:55:37;18.50;;;12.90;;
24801;SDS011;12898;50.520;12.152;2023-05-07T07:58:06;20.45;;;13.43;;
24801;SDS011;12898;50.520;12.152;2023-05-07T08:00:32;18.45;;;11.88;;
24801;SDS011;12898;50.520;12.152;2023-05-07T08:02:58;18.45;;;12.75;;
24801;SDS011;12898;50.520;12.152;2023-05-07T08:05:24;18.42;;;12.38;;
24801;SDS011;12898;50.520;12.152;2023-05-07T08:07:50;18.25;;;12.77;;
24801;SDS011;12898;50.520;12.152;2023-05-07T08:10:18;19.17;;;13.55;;
24801;SDS011;12898;50.520;12.152;2023-05-07T08:12:48;18.85;;;13.43;;
24801;SDS011;12898;50.520;12.152;2023-05-07T08:15:14;18.27;;;12.35;;
24801;SDS011;12898;50.520;12.152;2023-05-07T08:17:41;20.92;;;13.38;;
24801;SDS011;12898;50.520;12.152;2023-05-07T08:20:07;19.75;;;12.50;;
24801;SDS011;12898;50.520;12.152;2023-05-07T08:22:34;18.30;;;12.45;;
24801;SDS011;12898;50.520;12.152;2023-05-07T08:25:00;18.30;;;12.75;;
24801;SDS011;12898;50.520;12.152;2023-05-07T08:27:26;20.85;;;12.60;;
24801;SDS011;12898;50.520;12.152;2023-05-07T08:29:52;17.80;;;12.13;;
24801;SDS011;12898;50.520;12.152;2023-05-07T08:32:18;18.48;;;12.45;;
24801;SDS011;12898;50.520;12.152;2023-05-07T08:34:44;18.65;;;12.30;;
24801;SDS011;12898;50.520;12.152;2023-05-07T08:37:09;18.08;;;12.40;;
24801;SDS011;12898;50.520;12.152;2023-05-07T08:39:35;17.65;;;12.27;;
24801;SDS011;12898;50.520;12.152;2023-05-07T08:42:01;16.63;;;11.40;;
24801;SDS011;12898;50.520;12.152;2023-05-07T08:44:29;17.45;;;12.15;;
24801;SDS011;12898;50.520;12.152;2023-05-07T08:47:02;17.58;;;12.25;;
24801;SDS011;12898;50.520;12.152;2023-05-07T08:49:28;17.27;;;11.98;;
24801;SDS011;12898;50.520;12.152;2023-05-07T08:51:54;17.00;;;11.88;;
24801;SDS011;12898;50.520;12.152;2023-05-07T08:54:20;17.48;;;12.57;;
24801;SDS011;12898;50.520;12.152;2023-05-07T08:56:47;18.10;;;12.73;;
24801;SDS011;12898;50.520;12.152;2023-05-07T08:59:13;19.58;;;13.32;;
24801;SDS011;12898;50.520;12.152;2023-05-07T09:01:39;18.60;;;12.70;;
24801;SDS011;12898;50.520;12.152;2023-05-07T09:04:04;17.08;;;11.82;;
24801;SDS011;12898;50.520;12.152;2023-05-07T09:06:32;20.05;;;12.57;;
24801;SDS011;12898;50.520;12.152;2023-05-07T09:08:58;19.55;;;13.38;;
24801;SDS011;12898;50.520;12.152;2023-05-07T09:11:26;17.48;;;11.85;;
24801;SDS011;12898;50.520;12.152;2023-05-07T09:13:55;19.83;;;11.88;;
24801;SDS011;12898;50.520;12.152;2023-05-07T09:16:23;17.88;;;12.07;;
24801;SDS011;12898;50.520;12.152;2023-05-07T09:18:53;18.17;;;11.50;;
24801;SDS011;12898;50.520;12.152;2023-05-07T09:21:20;15.90;;;11.27;;
24801;SDS011;12898;50.520;12.152;2023-05-07T09:23:48;14.88;;;10.65;;
24801;SDS011;12898;50.520;12.152;2023-05-07T09:26:20;16.25;;;11.48;;
24801;SDS011;12898;50.520;12.152;2023-05-07T09:28:47;18.13;;;11.95;;
24801;SDS011;12898;50.520;12.152;2023-05-07T09:31:12;15.30;;;10.55;;
24801;SDS011;12898;50.520;12.152;2023-05-07T09:33:38;15.00;;;10.77;;
24801;SDS011;12898;50.520;12.152;2023-05-07T09:36:05;15.23;;;10.48;;
24801;SDS011;12898;50.520;12.152;2023-05-07T09:38:33;15.13;;;10.77;;
24801;SDS011;12898;50.520;12.152;2023-05-07T09:41:07;15.52;;;10.65;;
24801;SDS011;12898;50.520;12.152;2023-05-07T09:43:35;16.17;;;10.55;;
24801;SDS011;12898;50.520;12.152;2023-05-07T09:46:03;17.90;;;9.95;;
24801;SDS011;12898;50.520;12.152;2023-05-07T09:48:38;15.23;;;9.70;;
24801;SDS011;12898;50.520;12.152;2023-05-07T09:51:29;13.70;;;9.70;;
24801;SDS011;12898;50.520;12.152;2023-05-07T09:54:04;14.50;;;9.85;;
24801;SDS011;12898;50.520;12.152;2023-05-07T09:56:31;13.90;;;9.68;;
24801;SDS011;12898;50.520;12.152;2023-05-07T09:59:01;14.50;;;9.85;;
24801;SDS011;12898;50.520;12.152;2023-05-07T10:01:29;15.27;;;8.85;;
24801;SDS011;12898;50.520;12.152;2023-05-07T10:03:56;14.88;;;9.77;;
24801;SDS011;12898;50.520;12.152;2023-05-07T10:06:24;13.35;;;8.68;;
24801;SDS011;12898;50.520;12.152;2023-05-07T10:08:51;13.63;;;8.95;;
24801;SDS011;12898;50.520;12.152;2023-05-07T10:11:18;15.32;;;9.75;;
24801;SDS011;12898;50.520;12.152;2023-05-07T10:13:44;15.93;;;9.48;;
24801;SDS011;12898;50.520;12.152;2023-05-07T10:16:13;13.75;;;8.82;;
24801;SDS011;12898;50.520;12.152;2023-05-07T10:18:40;14.27;;;8.70;;
24801;SDS011;12898;50.520;12.152;2023-05-07T10:21:19;12.63;;;8.73;;
24801;SDS011;12898;50.520;12.152;2023-05-07T10:23:50;12.75;;;8.20;;
24801;SDS011;12898;50.520;12.152;2023-05-07T10:26:23;11.45;;;7.50;;
24801;SDS011;12898;50.520;12.152;2023-05-07T10:29:04;13.50;;;8.63;;
24801;SDS011;12898;50.520;12.152;2023-05-07T10:32:03;11.25;;;7.40;;
24801;SDS011;12898;50.520;12.152;2023-05-07T10:34:38;15.35;;;8.77;;
24801;SDS011;12898;50.520;12.152;2023-05-07T10:37:07;11.98;;;7.93;;
24801;SDS011;12898;50.520;12.152;2023-05-07T10:39:34;11.35;;;7.47;;
24801;SDS011;12898;50.520;12.152;2023-05-07T10:42:33;12.40;;;8.10;;
24801;SDS011;12898;50.520;12.152;2023-05-07T10:44:52;12.43;;;8.25;;
24801;SDS011;12898;50.520;12.152;2023-05-07T10:47:18;13.00;;;8.02;;
24801;SDS011;12898;50.520;12.152;2023-05-07T10:54:40;14.18;;;7.78;;
24801;SDS011;12898;50.520;12.152;2023-05-07T10:59:56;11.95;;;7.60;;
24801;SDS011;12898;50.520;12.152;2023-05-07T11:02:22;11.23;;;7.25;;
24801;SDS011;12898;50.520;12.152;2023-05-07T11:05:18;10.65;;;6.93;;
24801;SDS011;12898;50.520;12.152;2023-05-07T11:07:58;10.85;;;6.63;;
24801;SDS011;12898;50.520;12.152;2023-05-07T11:13:16;11.68;;;7.32;;
24801;SDS011;12898;50.520;12.152;2023-05-07T11:15:46;11.75;;;7.10;;
24801;SDS011;12898;50.520;12.152;2023-05-07T11:18:16;12.38;;;7.45;;
24801;SDS011;12898;50.520;12.152;2023-05-07T11:20:46;11.63;;;7.25;;
24801;SDS011;12898;50.520;12.152;2023-05-07T11:26:02;11.15;;;7.20;;
24801;SDS011;12898;50.520;12.152;2023-05-07T11:28:30;9.95;;;6.18;;
24801;SDS011;12898;50.520;12.152;2023-05-07T11:31:02;10.07;;;6.60;;
24801;SDS011;12898;50.520;12.152;2023-05-07T11:33:29;12.38;;;7.32;;
24801;SDS011;12898;50.520;12.152;2023-05-07T11:35:55;10.27;;;6.07;;
24801;SDS011;12898;50.520;12.152;2023-05-07T11:38:21;9.52;;;6.28;;
24801;SDS011;12898;50.520;12.152;2023-05-07T11:43:16;9.98;;;6.63;;
24801;SDS011;12898;50.520;12.152;2023-05-07T11:45:42;10.10;;;6.40;;
24801;SDS011;12898;50.520;12.152;2023-05-07T11:48:09;9.65;;;6.45;;
24801;SDS011;12898;50.520;12.152;2023-05-07T11:50:35;10.88;;;6.32;;
24801;SDS011;12898;50.520;12.152;2023-05-07T11:53:06;9.02;;;6.00;;
24801;SDS011;12898;50.520;12.152;2023-05-07T11:55:32;9.00;;;5.78;;
24801;SDS011;12898;50.520;12.152;2023-05-07T11:57:58;9.98;;;5.97;;
24801;SDS011;12898;50.520;12.152;2023-05-07T12:00:24;10.35;;;6.30;;
24801;SDS011;12898;50.520;12.152;2023-05-07T12:02:50;9.80;;;5.78;;
24801;SDS011;12898;50.520;12.152;2023-05-07T12:05:15;8.18;;;5.55;;
24801;SDS011;12898;50.520;12.152;2023-05-07T12:07:41;10.30;;;5.65;;
24801;SDS011;12898;50.520;12.152;2023-05-07T12:10:07;7.47;;;5.43;;
24801;SDS011;12898;50.520;12.152;2023-05-07T12:12:40;7.45;;;5.18;;
24801;SDS011;12898;50.520;12.152;2023-05-07T12:15:07;8.45;;;5.63;;
24801;SDS011;12898;50.520;12.152;2023-05-07T12:17:33;9.93;;;5.90;;
24801;SDS011;12898;50.520;12.152;2023-05-07T12:19:59;8.70;;;5.22;;
24801;SDS011;12898;50.520;12.152;2023-05-07T12:22:25;8.45;;;5.68;;
24801;SDS011;12898;50.520;12.152;2023-05-07T12:24:57;8.23;;;5.30;;
24801;SDS011;12898;50.520;12.152;2023-05-07T12:27:25;7.78;;;5.30;;
24801;SDS011;12898;50.520;12.152;2023-05-07T12:29:51;7.82;;;5.10;;
24801;SDS011;12898;50.520;12.152;2023-05-07T12:32:17;6.50;;;4.68;;
24801;SDS011;12898;50.520;12.152;2023-05-07T12:34:45;8.18;;;4.93;;
24801;SDS011;12898;50.520;12.152;2023-05-07T12:37:14;6.65;;;4.65;;
24801;SDS011;12898;50.520;12.152;2023-05-07T12:39:49;7.25;;;5.15;;
24801;SDS011;12898;50.520;12.152;2023-05-07T12:42:32;7.85;;;5.40;;
24801;SDS011;12898;50.520;12.152;2023-05-07T12:45:07;6.72;;;4.97;;
24801;SDS011;12898;50.520;12.152;2023-05-07T12:47:35;7.18;;;4.82;;
24801;SDS011;12898;50.520;12.152;2023-05-07T12:50:01;9.77;;;5.78;;
24801;SDS011;12898;50.520;12.152;2023-05-07T12:52:29;7.70;;;5.10;;
24801;SDS011;12898;50.520;12.152;2023-05-07T12:54:56;7.10;;;4.60;;
24801;SDS011;12898;50.520;12.152;2023-05-07T12:57:22;7.15;;;5.20;;
24801;SDS011;12898;50.520;12.152;2023-05-07T12:59:47;8.88;;;5.47;;
24801;SDS011;12898;50.520;12.152;2023-05-07T13:02:13;9.98;;;6.28;;
24801;SDS011;12898;50.520;12.152;2023-05-07T13:04:39;7.53;;;5.35;;
24801;SDS011;12898;50.520;12.152;2023-05-07T13:07:04;9.68;;;5.60;;
24801;SDS011;12898;50.520;12.152;2023-05-07T13:09:30;8.02;;;5.28;;
24801;SDS011;12898;50.520;12.152;2023-05-07T13:11:56;7.55;;;5.10;;
24801;SDS011;12898;50.520;12.152;2023-05-07T13:14:26;7.38;;;5.25;;
24801;SDS011;12898;50.520;12.152;2023-05-07T13:16:51;8.90;;;5.68;;
24801;SDS011;12898;50.520;12.152;2023-05-07T13:19:17;9.82;;;5.65;;
24801;SDS011;12898;50.520;12.152;2023-05-07T13:21:43;26.63;;;6.75;;
24801;SDS011;12898;50.520;12.152;2023-05-07T13:24:08;8.57;;;5.55;;
24801;SDS011;12898;50.520;12.152;2023-05-07T13:26:34;7.88;;;5.35;;
24801;SDS011;12898;50.520;12.152;2023-05-07T13:29:00;9.18;;;5.43;;
24801;SDS011;12898;50.520;12.152;2023-05-07T13:31:25;6.82;;;4.88;;
24801;SDS011;12898;50.520;12.152;2023-05-07T13:33:51;8.02;;;5.25;;
24801;SDS011;12898;50.520;12.152;2023-05-07T13:36:17;7.07;;;4.53;;
24801;SDS011;12898;50.520;12.152;2023-05-07T13:38:43;7.25;;;4.25;;
24801;SDS011;12898;50.520;12.152;2023-05-07T13:41:09;5.95;;;4.35;;
24801;SDS011;12898;50.520;12.152;2023-05-07T13:43:34;6.30;;;4.30;;
24801;SDS011;12898;50.520;12.152;2023-05-07T13:46:00;6.40;;;4.25;;
24801;SDS011;12898;50.520;12.152;2023-05-07T13:48:26;6.38;;;4.28;;
24801;SDS011;12898;50.520;12.152;2023-05-07T13:50:53;6.47;;;4.60;;
24801;SDS011;12898;50.520;12.152;2023-05-07T13:53:19;6.57;;;4.35;;
24801;SDS011;12898;50.520;12.152;2023-05-07T13:55:44;5.78;;;4.35;;
24801;SDS011;12898;50.520;12.152;2023-05-07T13:58:10;7.47;;;4.40;;
24801;SDS011;12898;50.520;12.152;2023-05-07T14:00:36;8.13;;;4.95;;
24801;SDS011;12898;50.520;12.152;2023-05-07T14:03:02;6.68;;;4.65;;
24801;SDS011;12898;50.520;12.152;2023-05-07T14:05:30;4.78;;;3.72;;
24801;SDS011;12898;50.520;12.152;2023-05-07T14:07:56;7.05;;;5.03;;
24801;SDS011;12898;50.520;12.152;2023-05-07T14:10:23;5.93;;;4.28;;
24801;SDS011;12898;50.520;12.152;2023-05-07T14:12:49;6.63;;;4.95;;
24801;SDS011;12898;50.520;12.152;2023-05-07T14:15:15;6.90;;;5.00;;
24801;SDS011;12898;50.520;12.152;2023-05-07T14:17:41;7.72;;;4.63;;
24801;SDS011;12898;50.520;12.152;2023-05-07T14:20:08;5.72;;;4.18;;
24801;SDS011;12898;50.520;12.152;2023-05-07T14:22:35;6.47;;;4.40;;
24801;SDS011;12898;50.520;12.152;2023-05-07T14:25:01;7.05;;;4.97;;
24801;SDS011;12898;50.520;12.152;2023-05-07T14:27:27;8.43;;;5.53;;
24801;SDS011;12898;50.520;12.152;2023-05-07T14:29:53;7.82;;;5.13;;